createdAt,value
2019-05-26T00:04:13.470Z,"    0"
2019-05-26T00:09:08.802Z,"    0"
2019-05-26T00:14:04.832Z,"    0"
2019-05-26T00:19:01.647Z,"    0"
2019-05-26T00:23:57.146Z,"    0"
2019-05-26T00:28:53.067Z,"    0"
2019-05-26T00:33:49.197Z,"    0"
2019-05-26T00:38:45.962Z,"    0"
2019-05-26T00:43:41.881Z,"    0"
2019-05-26T00:48:38.242Z,"    0"
2019-05-26T00:53:34.224Z,"    0"
2019-05-26T00:58:30.859Z,"    0"
2019-05-26T01:03:26.410Z,"    0"
2019-05-26T01:08:22.135Z,"    0"
2019-05-26T01:13:17.708Z,"    0"
2019-05-26T01:18:13.445Z,"    0"
2019-05-26T01:23:09.205Z,"    0"
2019-05-26T01:28:04.783Z,"    0"
2019-05-26T01:33:00.583Z,"    0"
2019-05-26T01:37:58.053Z,"    0"
2019-05-26T01:42:53.530Z,"    0"
2019-05-26T01:47:49.450Z,"    0"
2019-05-26T01:52:45.370Z,"    0"
2019-05-26T01:57:41.366Z,"    0"
2019-05-26T02:02:37.860Z,"    0"
2019-05-26T02:07:33.950Z,"    0"
2019-05-26T02:12:30.072Z,"    0"
2019-05-26T02:17:26.403Z,"    0"
2019-05-26T02:22:21.970Z,"    0"
2019-05-26T02:27:18.136Z,"    0"
2019-05-26T02:32:14.171Z,"    0"
2019-05-26T02:37:09.957Z,"    0"
2019-05-26T02:42:06.971Z,"    0"
2019-05-26T02:47:02.528Z,"    0"
2019-05-26T02:51:58.312Z,"    0"
2019-05-26T02:56:54.124Z,"    0"
2019-05-26T03:02:02.115Z,"    0"
2019-05-26T03:06:49.451Z,"    0"
2019-05-26T03:11:45.436Z,"    0"
2019-05-26T03:16:42.900Z,"    0"
2019-05-26T03:21:38.454Z,"    0"
2019-05-26T03:26:34.436Z,"    5"
2019-05-26T03:31:30.293Z,"    5"
2019-05-26T03:36:25.993Z,"   10"
2019-05-26T03:41:21.897Z,"   15"
2019-05-26T03:46:18.308Z,"   25"
2019-05-26T03:51:14.485Z,"   30"
2019-05-26T03:56:10.521Z,"   35"
2019-05-26T04:01:06.921Z,"   40"
2019-05-26T04:06:02.894Z,"   45"
2019-05-26T04:10:58.719Z,"   50"
2019-05-26T04:15:54.689Z,"   55"
2019-05-26T04:20:51.573Z,"   55"
2019-05-26T04:25:48.266Z,"   60"
2019-05-26T04:30:43.797Z,"   65"
2019-05-26T04:35:39.734Z,"   75"
2019-05-26T04:40:36.055Z,"   85"
2019-05-26T04:45:32.143Z,"  100"
2019-05-26T04:50:28.446Z,"  115"
2019-05-26T04:55:25.261Z,"  140"
2019-05-26T05:00:21.747Z,"  175"
2019-05-26T05:05:18.365Z,"  210"
2019-05-26T05:10:14.986Z,"  175"
2019-05-26T05:15:10.944Z,"  165"
2019-05-26T05:20:06.675Z,"  200"
2019-05-26T05:25:02.737Z,"  205"
2019-05-26T05:29:59.099Z,"  225"
2019-05-26T05:34:55.450Z,"  255"
2019-05-26T05:39:51.758Z,"  295"
2019-05-26T05:44:47.929Z,"  225"
2019-05-26T05:49:44.621Z,"  205"
2019-05-26T05:54:41.087Z,"  185"
2019-05-26T05:59:36.450Z,"  190"
2019-05-26T06:04:32.154Z,"  190"
2019-05-26T06:09:27.833Z,"  210"
2019-05-26T06:14:24.814Z,"  220"
2019-05-26T06:19:21.797Z,"  210"
2019-05-26T06:24:17.339Z,"  205"
2019-05-26T06:29:14.214Z,"  210"
2019-05-26T06:34:11.069Z,"  235"
2019-05-26T06:39:06.733Z,"  245"
2019-05-26T06:44:02.688Z,"  250"
2019-05-26T06:48:58.753Z,"  260"
2019-05-26T06:53:55.882Z,"  280"
2019-05-26T06:58:52.740Z,"  280"
2019-05-26T07:03:48.604Z,"  260"
2019-05-26T07:08:44.740Z,"  230"
2019-05-26T07:13:40.677Z,"  210"
2019-05-26T07:18:36.428Z,"  230"
2019-05-26T07:23:34.287Z,"  370"
2019-05-26T07:28:30.787Z,"  345"
2019-05-26T07:33:27.146Z,"  325"
2019-05-26T07:38:24.196Z,"  330"
2019-05-26T07:43:19.872Z,"  330"
2019-05-26T07:48:16.649Z,"  225"
2019-05-26T07:53:12.087Z,"  185"
2019-05-26T07:58:07.519Z,"  175"
2019-05-26T08:03:03.365Z,"  175"
2019-05-26T08:08:11.995Z,"  180"
2019-05-26T08:12:58.844Z,"  165"
2019-05-26T08:17:54.992Z,"  160"
2019-05-26T08:22:52.083Z,"  190"
2019-05-26T08:27:48.751Z,"  200"
2019-05-26T08:32:44.934Z,"  190"
2019-05-26T08:37:41.168Z,"  190"
2019-05-26T08:42:44.518Z,"  205"
2019-05-26T08:47:38.069Z,"  160"
2019-05-26T08:52:33.925Z,"  170"
2019-05-26T08:57:30.045Z,"  145"
2019-05-26T09:02:26.066Z,"  150"
2019-05-26T09:07:21.926Z,"  200"
2019-05-26T09:12:18.220Z,"  205"
2019-05-26T09:17:14.367Z,"  235"
2019-05-26T09:22:11.451Z,"  295"
2019-05-26T09:27:07.581Z,"  355"
2019-05-26T09:32:04.834Z,"  440"
2019-05-26T09:37:02.340Z,"  425"
2019-05-26T09:41:58.310Z,"  435"
2019-05-26T09:46:54.596Z,"  400"
2019-05-26T09:51:51.392Z,"  370"
2019-05-26T09:56:47.523Z,"  340"
2019-05-26T10:01:43.542Z,"  350"
2019-05-26T10:06:39.703Z,"  380"
2019-05-26T10:11:36.798Z,"  590"
2019-05-26T10:16:32.783Z,"  350"
2019-05-26T10:21:28.738Z,"  405"
2019-05-26T10:26:25.723Z,"  380"
2019-05-26T10:31:21.242Z,"  415"
2019-05-26T10:36:17.409Z,"  390"
2019-05-26T10:41:13.331Z,"  340"
2019-05-26T10:46:09.207Z,"  445"
2019-05-26T10:51:07.006Z,"  470"
2019-05-26T10:56:02.934Z,"  690"
2019-05-26T11:00:59.407Z,"  525"
2019-05-26T11:05:56.783Z,"  560"
2019-05-26T11:10:53.430Z,"  470"
2019-05-26T11:15:50.246Z,"  500"
2019-05-26T11:20:46.314Z,"  505"
2019-05-26T11:25:42.094Z,"  435"
2019-05-26T11:30:38.306Z,"  405"
2019-05-26T11:35:34.883Z,"  500"
2019-05-26T11:40:31.999Z,"  465"
2019-05-26T11:45:27.776Z,"  895"
2019-05-26T11:50:24.295Z,"  405"
2019-05-26T11:55:20.135Z,"  390"
2019-05-26T12:00:16.173Z,"  820"
2019-05-26T12:05:12.327Z,"  480"
2019-05-26T12:10:12.956Z,"  445"
2019-05-26T12:15:09.206Z,"  915"
2019-05-26T12:20:05.542Z,"  585"
2019-05-26T12:25:01.202Z,"  430"
2019-05-26T12:29:57.210Z,"  300"
2019-05-26T12:34:53.319Z,"  250"
2019-05-26T12:39:48.899Z,"  255"
2019-05-26T12:44:49.725Z,"  430"
2019-05-26T12:49:44.663Z,"  385"
2019-05-26T12:54:40.706Z,"  455"
2019-05-26T12:59:37.033Z,"  635"
2019-05-26T13:04:33.319Z,"  450"
2019-05-26T13:09:29.988Z,"  685"
2019-05-26T13:14:27.195Z,"  970"
2019-05-26T13:19:23.509Z,"  530"
2019-05-26T13:24:19.448Z,"  305"
2019-05-26T13:29:15.431Z,"  465"
2019-05-26T13:34:12.410Z,"  275"
2019-05-26T13:39:08.992Z,"  680"
2019-05-26T13:44:05.869Z,"  360"
2019-05-26T13:49:01.460Z,"  315"
2019-05-26T13:53:57.202Z,"  300"
2019-05-26T13:58:53.166Z,"  290"
2019-05-26T14:03:49.221Z,"  175"
2019-05-26T14:08:45.967Z,"   90"
2019-05-26T14:13:41.104Z,"   80"
2019-05-26T14:18:36.649Z,"   85"
2019-05-26T14:23:32.359Z,"  105"
2019-05-26T14:28:28.238Z,"  125"
2019-05-26T14:33:24.315Z,"   80"
2019-05-26T14:38:21.421Z,"  130"
2019-05-26T14:43:17.407Z,"  185"
2019-05-26T14:48:13.632Z,"  190"
2019-05-26T14:53:09.823Z,"  210"
2019-05-26T14:58:15.618Z,"  230"
2019-05-26T15:03:06.667Z,"  240"
2019-05-26T15:08:02.486Z,"  225"
2019-05-26T15:12:58.569Z,"  195"
2019-05-26T15:17:54.381Z,"  215"
2019-05-26T15:22:50.431Z,"  205"
2019-05-26T15:27:46.795Z,"  195"
2019-05-26T15:32:42.566Z,"  220"
2019-05-26T15:37:38.659Z,"  210"
2019-05-26T15:42:34.633Z,"  195"
2019-05-26T15:47:30.773Z,"  190"
2019-05-26T15:52:27.722Z,"  200"
2019-05-26T15:57:23.600Z,"  185"
2019-05-26T16:02:19.389Z,"  165"
2019-05-26T16:07:15.477Z,"  140"
2019-05-26T16:12:11.165Z,"  110"
2019-05-26T16:17:07.980Z,"  100"
2019-05-26T16:22:04.412Z,"   95"
2019-05-26T16:27:17.860Z,"   90"
2019-05-26T16:32:00.106Z,"   90"
2019-05-26T16:36:55.804Z,"   75"
2019-05-26T16:41:53.011Z,"   55"
2019-05-26T16:46:56.587Z,"   50"
2019-05-26T16:51:48.782Z,"   50"
2019-05-26T16:56:45.224Z,"   65"
2019-05-26T17:01:41.922Z,"   75"
2019-05-26T17:06:38.614Z,"   95"
2019-05-26T17:11:35.416Z,"  115"
2019-05-26T17:16:31.559Z,"  115"
2019-05-26T17:21:28.534Z,"  120"
2019-05-26T17:26:24.184Z,"  110"
2019-05-26T17:31:20.630Z,"  100"
2019-05-26T17:36:16.617Z,"   80"
2019-05-26T17:41:12.441Z,"   75"
2019-05-26T17:46:08.192Z,"   80"
2019-05-26T17:51:04.115Z,"   65"
2019-05-26T17:56:00.085Z,"   65"
2019-05-26T18:00:56.043Z,"   70"
2019-05-26T18:05:52.310Z,"   75"
2019-05-26T18:10:48.094Z,"   60"
2019-05-26T18:15:44.546Z,"   60"
2019-05-26T18:20:40.650Z,"   60"
2019-05-26T18:25:36.597Z,"   50"
2019-05-26T18:30:33.390Z,"   40"
2019-05-26T18:35:28.887Z,"   30"
2019-05-26T18:40:25.834Z,"   15"
2019-05-26T18:45:21.572Z,"   10"
2019-05-26T18:50:17.283Z,"    5"
2019-05-26T18:55:13.281Z,"    5"
2019-05-26T19:00:09.035Z,"    5"
2019-05-26T19:05:05.295Z,"    0"
2019-05-26T19:10:01.156Z,"    0"
2019-05-26T19:14:57.111Z,"    0"
2019-05-26T19:19:53.066Z,"    0"
2019-05-26T19:24:48.808Z,"    0"
2019-05-26T19:29:44.737Z,"    0"
2019-05-26T19:34:40.498Z,"    0"
2019-05-26T19:39:36.548Z,"    0"
2019-05-26T19:44:32.373Z,"    0"
2019-05-26T19:49:28.400Z,"    0"
2019-05-26T19:54:24.389Z,"    0"
2019-05-26T19:59:20.196Z,"    0"
2019-05-26T20:04:17.197Z,"    0"
2019-05-26T20:09:12.941Z,"    0"
2019-05-26T20:14:08.802Z,"    0"
2019-05-26T20:19:05.856Z,"    0"
2019-05-26T20:24:01.523Z,"    0"
2019-05-26T20:28:57.238Z,"    0"
2019-05-26T20:33:53.277Z,"    0"
2019-05-26T20:38:49.028Z,"    0"
2019-05-26T20:43:45.433Z,"    0"
2019-05-26T20:48:42.829Z,"    0"
2019-05-26T20:53:40.623Z,"    0"
2019-05-26T20:58:35.812Z,"    0"
2019-05-26T21:03:31.678Z,"    0"
2019-05-26T21:08:27.466Z,"    0"
2019-05-26T21:13:23.541Z,"    0"
2019-05-26T21:18:19.561Z,"    0"
2019-05-26T21:23:15.542Z,"    0"
2019-05-26T21:28:12.461Z,"    0"
2019-05-26T21:33:08.194Z,"    0"
2019-05-26T21:38:03.949Z,"    0"
2019-05-26T21:42:59.836Z,"    0"
2019-05-26T21:47:55.717Z,"    0"
2019-05-26T21:52:52.405Z,"    0"
2019-05-26T21:57:47.887Z,"    0"
2019-05-26T22:02:43.987Z,"    0"
2019-05-26T22:07:39.735Z,"    0"
2019-05-26T22:12:36.553Z,"    0"
2019-05-26T22:17:33.143Z,"    0"
2019-05-26T22:22:28.531Z,"    0"
2019-05-26T22:27:24.546Z,"    0"
2019-05-26T22:32:20.329Z,"    0"
2019-05-26T22:37:16.211Z,"    0"
2019-05-26T22:42:12.401Z,"    0"
2019-05-26T22:47:08.239Z,"    0"
2019-05-26T22:52:04.170Z,"    0"
2019-05-26T22:57:00.997Z,"    0"
2019-05-26T23:01:56.557Z,"    0"
2019-05-26T23:06:52.381Z,"    0"
2019-05-26T23:11:49.376Z,"    0"
2019-05-26T23:16:44.853Z,"    0"
2019-05-26T23:21:41.597Z,"    0"
2019-05-26T23:26:37.180Z,"    0"
2019-05-26T23:31:34.089Z,"    0"
2019-05-26T23:36:29.781Z,"    0"
2019-05-26T23:41:25.588Z,"    0"
2019-05-26T23:46:21.474Z,"    0"
2019-05-26T23:51:17.259Z,"    0"
2019-05-26T23:56:13.430Z,"    0"
